sensor_id;sensor_type;location;lat;lon;timestamp;temperature;humidity
63976;DHT22;50167;47.958;21.780;2023-10-13T00:01:22;17.91;62.84
63976;DHT22;50167;47.958;21.780;2023-10-13T00:03:50;18.53;64.27
63976;DHT22;50167;47.958;21.780;2023-10-13T00:06:20;19.66;60.37
63976;DHT22;50167;47.958;21.780;2023-10-13T00:08:46;20.28;58.55
63976;DHT22;50167;47.958;21.780;2023-10-13T00:11:13;20.07;57.85
63976;DHT22;50167;47.958;21.780;2023-10-13T00:13:40;19.21;59.93
63976;DHT22;50167;47.958;21.780;2023-10-13T00:16:11;18.55;61.69
63976;DHT22;50167;47.958;21.780;2023-10-13T00:18:39;18.08;63.40
63976;DHT22;50167;47.958;21.780;2023-10-13T00:21:10;18.60;64.74
63976;DHT22;50167;47.958;21.780;2023-10-13T00:23:46;19.83;63.38
63976;DHT22;50167;47.958;21.780;2023-10-13T00:26:24;20.59;60.64
63976;DHT22;50167;47.958;21.780;2023-10-13T00:28:58;21.01;58.52
63976;DHT22;50167;47.958;21.780;2023-10-13T00:31:29;20.63;57.31
63976;DHT22;50167;47.958;21.780;2023-10-13T00:33:57;19.86;58.69
63976;DHT22;50167;47.958;21.780;2023-10-13T00:36:25;19.21;60.04
63976;DHT22;50167;47.958;21.780;2023-10-13T00:38:51;18.69;61.70
63976;DHT22;50167;47.958;21.780;2023-10-13T00:41:18;18.33;62.90
63976;DHT22;50167;47.958;21.780;2023-10-13T00:43:47;18.84;64.55
63976;DHT22;50167;47.958;21.780;2023-10-13T00:46:36;20.03;60.74
63976;DHT22;50167;47.958;21.780;2023-10-13T00:49:05;20.51;58.48
63976;DHT22;50167;47.958;21.780;2023-10-13T00:51:34;19.97;59.14
63976;DHT22;50167;47.958;21.780;2023-10-13T00:54:04;19.19;60.50
63976;DHT22;50167;47.958;21.780;2023-10-13T00:56:32;18.58;62.50
63976;DHT22;50167;47.958;21.780;2023-10-13T00:59:00;18.87;63.83
63976;DHT22;50167;47.958;21.780;2023-10-13T01:01:29;19.88;63.03
63976;DHT22;50167;47.958;21.780;2023-10-13T01:03:58;20.59;61.02
63976;DHT22;50167;47.958;21.780;2023-10-13T01:06:27;20.97;59.14
63976;DHT22;50167;47.958;21.780;2023-10-13T01:09:01;20.60;58.12
63976;DHT22;50167;47.958;21.780;2023-10-13T01:11:47;19.56;59.64
63976;DHT22;50167;47.958;21.780;2023-10-13T01:14:21;18.87;61.37
63976;DHT22;50167;47.958;21.780;2023-10-13T01:16:49;18.42;62.88
63976;DHT22;50167;47.958;21.780;2023-10-13T01:19:19;18.86;64.57
63976;DHT22;50167;47.958;21.780;2023-10-13T01:21:53;19.93;62.56
63976;DHT22;50167;47.958;21.780;2023-10-13T01:24:30;20.53;61.30
63976;DHT22;50167;47.958;21.780;2023-10-13T01:27:07;20.93;59.68
63976;DHT22;50167;47.958;21.780;2023-10-13T01:29:47;20.58;58.69
63976;DHT22;50167;47.958;21.780;2023-10-13T01:32:20;19.72;60.18
63976;DHT22;50167;47.958;21.780;2023-10-13T01:34:44;19.05;61.59
63976;DHT22;50167;47.958;21.780;2023-10-13T01:37:15;18.49;63.38
63976;DHT22;50167;47.958;21.780;2023-10-13T01:39:45;18.90;65.49
63976;DHT22;50167;47.958;21.780;2023-10-13T01:42:16;19.81;64.75
63976;DHT22;50167;47.958;21.780;2023-10-13T01:44:47;20.43;62.97
63976;DHT22;50167;47.958;21.780;2023-10-13T01:47:14;20.86;62.04
63976;DHT22;50167;47.958;21.780;2023-10-13T01:49:42;21.17;60.75
63976;DHT22;50167;47.958;21.780;2023-10-13T01:52:10;21.37;59.98
63976;DHT22;50167;47.958;21.780;2023-10-13T01:54:39;21.54;59.14
63976;DHT22;50167;47.958;21.780;2023-10-13T01:57:09;21.13;58.56
63976;DHT22;50167;47.958;21.780;2023-10-13T01:59:50;20.11;60.57
63976;DHT22;50167;47.958;21.780;2023-10-13T02:02:17;19.36;62.76
63976;DHT22;50167;47.958;21.780;2023-10-13T02:04:45;19.60;64.76
63976;DHT22;50167;47.958;21.780;2023-10-13T02:07:22;20.51;63.30
63976;DHT22;50167;47.958;21.780;2023-10-13T02:09:51;20.99;61.94
63976;DHT22;50167;47.958;21.780;2023-10-13T02:12:18;21.15;61.08
63976;DHT22;50167;47.958;21.780;2023-10-13T02:14:44;21.27;60.90
63976;DHT22;50167;47.958;21.780;2023-10-13T02:17:11;21.33;60.22
63976;DHT22;50167;47.958;21.780;2023-10-13T02:19:42;21.34;60.59
63976;DHT22;50167;47.958;21.780;2023-10-13T02:22:14;21.41;60.31
63976;DHT22;50167;47.958;21.780;2023-10-13T02:24:54;21.52;59.88
63976;DHT22;50167;47.958;21.780;2023-10-13T02:27:22;21.59;59.82
63976;DHT22;50167;47.958;21.780;2023-10-13T02:29:51;21.68;59.38
63976;DHT22;50167;47.958;21.780;2023-10-13T02:32:19;21.13;58.86
63976;DHT22;50167;47.958;21.780;2023-10-13T02:34:46;20.10;61.00
63976;DHT22;50167;47.958;21.780;2023-10-13T02:37:12;19.27;63.11
63976;DHT22;50167;47.958;21.780;2023-10-13T02:39:40;19.36;64.49
63976;DHT22;50167;47.958;21.780;2023-10-13T02:42:10;19.93;63.54
63976;DHT22;50167;47.958;21.780;2023-10-13T02:44:38;20.11;63.25
63976;DHT22;50167;47.958;21.780;2023-10-13T02:47:06;20.41;62.84
63976;DHT22;50167;47.958;21.780;2023-10-13T02:49:34;20.58;62.49
63976;DHT22;50167;47.958;21.780;2023-10-13T02:52:02;20.71;61.59
63976;DHT22;50167;47.958;21.780;2023-10-13T02:54:31;20.87;60.55
63976;DHT22;50167;47.958;21.780;2023-10-13T02:56:59;20.76;59.55
63976;DHT22;50167;47.958;21.780;2023-10-13T02:59:28;20.66;60.66
63976;DHT22;50167;47.958;21.780;2023-10-13T03:02:03;20.71;61.06
63976;DHT22;50167;47.958;21.780;2023-10-13T03:04:54;20.93;60.73
63976;DHT22;50167;47.958;21.780;2023-10-13T03:07:18;21.17;60.02
63976;DHT22;50167;47.958;21.780;2023-10-13T03:09:52;21.27;59.34
63976;DHT22;50167;47.958;21.780;2023-10-13T03:12:19;20.79;58.76
63976;DHT22;50167;47.958;21.780;2023-10-13T03:14:46;19.78;60.23
63976;DHT22;50167;47.958;21.780;2023-10-13T03:17:14;18.93;62.81
63976;DHT22;50167;47.958;21.780;2023-10-13T03:19:44;19.12;65.41
63976;DHT22;50167;47.958;21.780;2023-10-13T03:22:13;20.14;63.97
63976;DHT22;50167;47.958;21.780;2023-10-13T03:24:41;20.63;61.82
63976;DHT22;50167;47.958;21.780;2023-10-13T03:27:15;20.83;60.92
63976;DHT22;50167;47.958;21.780;2023-10-13T03:29:47;20.93;60.23
63976;DHT22;50167;47.958;21.780;2023-10-13T03:32:15;20.99;60.15
63976;DHT22;50167;47.958;21.780;2023-10-13T03:34:43;21.09;60.01
63976;DHT22;50167;47.958;21.780;2023-10-13T03:37:16;21.27;59.38
63976;DHT22;50167;47.958;21.780;2023-10-13T03:40:03;20.68;58.95
63976;DHT22;50167;47.958;21.780;2023-10-13T03:42:31;19.60;57.43
63976;DHT22;50167;47.958;21.780;2023-10-13T03:44:58;18.84;62.65
63976;DHT22;50167;47.958;21.780;2023-10-13T03:47:24;19.05;64.93
63976;DHT22;50167;47.958;21.780;2023-10-13T03:49:55;19.96;63.71
63976;DHT22;50167;47.958;21.780;2023-10-13T03:52:40;20.49;62.04
63976;DHT22;50167;47.958;21.780;2023-10-13T03:55:08;20.72;60.96
63976;DHT22;50167;47.958;21.780;2023-10-13T03:57:36;20.82;60.52
63976;DHT22;50167;47.958;21.780;2023-10-13T04:00:06;20.87;60.14
63976;DHT22;50167;47.958;21.780;2023-10-13T04:02:37;20.94;59.98
63976;DHT22;50167;47.958;21.780;2023-10-13T04:05:05;21.04;59.64
63976;DHT22;50167;47.958;21.780;2023-10-13T04:07:35;21.11;59.24
63976;DHT22;50167;47.958;21.780;2023-10-13T04:10:09;20.56;58.81
63976;DHT22;50167;47.958;21.780;2023-10-13T04:12:54;19.41;60.81
63976;DHT22;50167;47.958;21.780;2023-10-13T04:15:42;18.56;63.51
63976;DHT22;50167;47.958;21.780;2023-10-13T04:18:09;18.87;65.98
63976;DHT22;50167;47.958;21.780;2023-10-13T04:20:53;19.86;64.21
63976;DHT22;50167;47.958;21.780;2023-10-13T04:23:20;20.38;62.39
63976;DHT22;50167;47.958;21.780;2023-10-13T04:25:48;20.69;61.02
63976;DHT22;50167;47.958;21.780;2023-10-13T04:28:15;20.93;60.41
63976;DHT22;50167;47.958;21.780;2023-10-13T04:30:49;21.11;59.89
63976;DHT22;50167;47.958;21.780;2023-10-13T04:33:29;21.28;59.12
63976;DHT22;50167;47.958;21.780;2023-10-13T04:36:06;20.72;58.64
63976;DHT22;50167;47.958;21.780;2023-10-13T04:38:53;19.59;61.04
63976;DHT22;50167;47.958;21.780;2023-10-13T04:44:13;19.15;65.63
63976;DHT22;50167;47.958;21.780;2023-10-13T04:47:00;20.15;63.60
63976;DHT22;50167;47.958;21.780;2023-10-13T04:49:33;20.60;61.93
63976;DHT22;50167;47.958;21.780;2023-10-13T04:52:09;20.89;60.99
63976;DHT22;50167;47.958;21.780;2023-10-13T04:57:16;21.11;60.13
63976;DHT22;50167;47.958;21.780;2023-10-13T04:59:53;21.14;59.79
63976;DHT22;50167;47.958;21.780;2023-10-13T05:02:42;21.20;59.51
63976;DHT22;50167;47.958;21.780;2023-10-13T05:05:23;20.60;59.21
63976;DHT22;50167;47.958;21.780;2023-10-13T05:07:52;19.52;61.17
63976;DHT22;50167;47.958;21.780;2023-10-13T05:10:23;18.69;63.55
63976;DHT22;50167;47.958;21.780;2023-10-13T05:13:08;18.94;65.81
63976;DHT22;50167;47.958;21.780;2023-10-13T05:15:53;19.88;64.52
63976;DHT22;50167;47.958;21.780;2023-10-13T05:18:38;20.41;62.93
63976;DHT22;50167;47.958;21.780;2023-10-13T05:21:24;20.73;61.80
63976;DHT22;50167;47.958;21.780;2023-10-13T05:24:09;21.00;61.06
63976;DHT22;50167;47.958;21.780;2023-10-13T05:26:54;21.14;60.38
63976;DHT22;50167;47.958;21.780;2023-10-13T05:29:44;21.31;59.94
63976;DHT22;50167;47.958;21.780;2023-10-13T05:32:30;21.48;59.21
63976;DHT22;50167;47.958;21.780;2023-10-13T05:35:16;20.84;58.66
63976;DHT22;50167;47.958;21.780;2023-10-13T05:38:01;19.69;60.97
63976;DHT22;50167;47.958;21.780;2023-10-13T05:40:58;18.77;63.39
63976;DHT22;50167;47.958;21.780;2023-10-13T05:43:43;19.24;65.56
63976;DHT22;50167;47.958;21.780;2023-10-13T05:46:28;20.07;63.94
63976;DHT22;50167;47.958;21.780;2023-10-13T05:49:04;20.53;62.59
63976;DHT22;50167;47.958;21.780;2023-10-13T05:51:32;20.79;61.17
63976;DHT22;50167;47.958;21.780;2023-10-13T05:54:00;20.86;60.87
63976;DHT22;50167;47.958;21.780;2023-10-13T05:56:51;21.03;60.88
63976;DHT22;50167;47.958;21.780;2023-10-13T05:59:38;21.20;60.15
63976;DHT22;50167;47.958;21.780;2023-10-13T06:02:24;21.38;59.77
63976;DHT22;50167;47.958;21.780;2023-10-13T06:05:12;21.58;59.37
63976;DHT22;50167;47.958;21.780;2023-10-13T06:07:58;21.06;58.53
63976;DHT22;50167;47.958;21.780;2023-10-13T06:10:43;20.03;60.69
63976;DHT22;50167;47.958;21.780;2023-10-13T06:13:28;19.12;63.02
63976;DHT22;50167;47.958;21.780;2023-10-13T06:16:18;19.36;65.00
63976;DHT22;50167;47.958;21.780;2023-10-13T06:19:03;20.42;63.47
63976;DHT22;50167;47.958;21.780;2023-10-13T06:21:47;21.10;61.51
63976;DHT22;50167;47.958;21.780;2023-10-13T06:24:32;21.57;59.84
63976;DHT22;50167;47.958;21.780;2023-10-13T06:27:17;21.88;58.67
63976;DHT22;50167;47.958;21.780;2023-10-13T06:30:02;21.33;58.25
63976;DHT22;50167;47.958;21.780;2023-10-13T06:32:30;20.36;60.14
63976;DHT22;50167;47.958;21.780;2023-10-13T06:34:58;19.67;62.26
63976;DHT22;50167;47.958;21.780;2023-10-13T06:37:25;19.93;64.34
63976;DHT22;50167;47.958;21.780;2023-10-13T06:40:01;20.86;62.51
63976;DHT22;50167;47.958;21.780;2023-10-13T06:42:35;21.45;60.91
63976;DHT22;50167;47.958;21.780;2023-10-13T06:45:04;21.86;59.74
63976;DHT22;50167;47.958;21.780;2023-10-13T06:47:33;22.13;58.73
63976;DHT22;50167;47.958;21.780;2023-10-13T06:49:59;21.66;58.23
63976;DHT22;50167;47.958;21.780;2023-10-13T06:52:26;20.71;60.24
63976;DHT22;50167;47.958;21.780;2023-10-13T06:57:22;19.96;64.55
63976;DHT22;50167;47.958;21.780;2023-10-13T06:59:49;20.75;62.97
63976;DHT22;50167;47.958;21.780;2023-10-13T07:02:15;21.21;61.92
63976;DHT22;50167;47.958;21.780;2023-10-13T07:04:43;21.54;60.59
63976;DHT22;50167;47.958;21.780;2023-10-13T07:07:09;21.79;59.69
63976;DHT22;50167;47.958;21.780;2023-10-13T07:09:39;22.02;59.08
63976;DHT22;50167;47.958;21.780;2023-10-13T07:12:06;21.65;58.01
63976;DHT22;50167;47.958;21.780;2023-10-13T07:14:50;20.75;59.97
63976;DHT22;50167;47.958;21.780;2023-10-13T07:17:21;20.10;61.43
63976;DHT22;50167;47.958;21.780;2023-10-13T07:19:54;19.63;62.62
63976;DHT22;50167;47.958;21.780;2023-10-13T07:22:23;19.94;64.24
63976;DHT22;50167;47.958;21.780;2023-10-13T07:27:28;21.64;60.79
63976;DHT22;50167;47.958;21.780;2023-10-13T07:29:56;22.21;58.08
63976;DHT22;50167;47.958;21.780;2023-10-13T07:32:24;21.93;56.88
63976;DHT22;50167;47.958;21.780;2023-10-13T07:34:55;21.24;58.82
63976;DHT22;50167;47.958;21.780;2023-10-13T07:37:23;20.72;59.92
63976;DHT22;50167;47.958;21.780;2023-10-13T07:39:56;20.27;61.24
63976;DHT22;50167;47.958;21.780;2023-10-13T07:42:25;20.03;61.86
63976;DHT22;50167;47.958;21.780;2023-10-13T07:44:54;19.90;62.20
63976;DHT22;50167;47.958;21.780;2023-10-13T07:47:21;20.73;62.86
63976;DHT22;50167;47.958;21.780;2023-10-13T07:49:49;22.20;59.56
63976;DHT22;50167;47.958;21.780;2023-10-13T07:52:16;22.41;57.00
63976;DHT22;50167;47.958;21.780;2023-10-13T07:54:50;21.82;57.52
63976;DHT22;50167;47.958;21.780;2023-10-13T07:57:29;21.31;58.55
63976;DHT22;50167;47.958;21.780;2023-10-13T07:59:56;21.01;59.89
63976;DHT22;50167;47.958;21.780;2023-10-13T08:02:29;20.83;60.53
63976;DHT22;50167;47.958;21.780;2023-10-13T08:05:11;20.82;61.37
63976;DHT22;50167;47.958;21.780;2023-10-13T08:07:39;20.86;60.89
63976;DHT22;50167;47.958;21.780;2023-10-13T08:13:47;20.84;62.60
63976;DHT22;50167;47.958;21.780;2023-10-13T08:16:13;21.49;61.90
63976;DHT22;50167;47.958;21.780;2023-10-13T08:18:41;22.61;58.02
63976;DHT22;50167;47.958;21.780;2023-10-13T08:21:09;22.74;56.68
63976;DHT22;50167;47.958;21.780;2023-10-13T08:23:37;22.27;57.44
63976;DHT22;50167;47.958;21.780;2023-10-13T08:26:24;21.97;58.37
63976;DHT22;50167;47.958;21.780;2023-10-13T08:29:04;21.75;58.55
63976;DHT22;50167;47.958;21.780;2023-10-13T08:31:51;21.59;58.62
63976;DHT22;50167;47.958;21.780;2023-10-13T08:34:36;21.52;59.99
63976;DHT22;50167;47.958;21.780;2023-10-13T08:37:08;21.49;59.15
63976;DHT22;50167;47.958;21.780;2023-10-13T08:39:36;21.47;60.51
63976;DHT22;50167;47.958;21.780;2023-10-13T08:42:07;21.48;60.11
63976;DHT22;50167;47.958;21.780;2023-10-13T08:44:44;21.54;60.32
63976;DHT22;50167;47.958;21.780;2023-10-13T08:47:15;21.61;60.06
63976;DHT22;50167;47.958;21.780;2023-10-13T08:49:46;21.68;60.43
63976;DHT22;50167;47.958;21.780;2023-10-13T08:52:14;21.86;59.88
63976;DHT22;50167;47.958;21.780;2023-10-13T08:54:56;22.21;58.48
63976;DHT22;50167;47.958;21.780;2023-10-13T08:57:31;22.75;57.17
63976;DHT22;50167;47.958;21.780;2023-10-13T09:00:00;23.39;55.49
63976;DHT22;50167;47.958;21.780;2023-10-13T09:02:28;23.80;54.13
63976;DHT22;50167;47.958;21.780;2023-10-13T09:04:57;23.71;55.42
63976;DHT22;50167;47.958;21.780;2023-10-13T09:07:28;23.61;54.36
63976;DHT22;50167;47.958;21.780;2023-10-13T09:09:54;23.47;54.63
63976;DHT22;50167;47.958;21.780;2023-10-13T09:15:02;24.91;52.36
63976;DHT22;50167;47.958;21.780;2023-10-13T09:17:42;25.88;49.82
63976;DHT22;50167;47.958;21.780;2023-10-13T09:20:31;27.06;46.82
63976;DHT22;50167;47.958;21.780;2023-10-13T09:22:59;28.19;44.71
63976;DHT22;50167;47.958;21.780;2023-10-13T09:25:40;29.16;43.84
63976;DHT22;50167;47.958;21.780;2023-10-13T09:28:13;29.98;40.80
63976;DHT22;50167;47.958;21.780;2023-10-13T09:30:47;30.80;39.24
63976;DHT22;50167;47.958;21.780;2023-10-13T09:33:18;31.40;38.21
63976;DHT22;50167;47.958;21.780;2023-10-13T09:35:44;32.07;36.96
63976;DHT22;50167;47.958;21.780;2023-10-13T09:41:42;33.05;35.31
63976;DHT22;50167;47.958;21.780;2023-10-13T09:48:38;33.67;34.17
63976;DHT22;50167;47.958;21.780;2023-10-13T09:51:16;34.06;33.30
63976;DHT22;50167;47.958;21.780;2023-10-13T09:57:10;34.78;32.42
63976;DHT22;50167;47.958;21.780;2023-10-13T09:59:45;34.90;32.24
63976;DHT22;50167;47.958;21.780;2023-10-13T10:06:23;33.81;33.07
63976;DHT22;50167;47.958;21.780;2023-10-13T10:09:09;33.03;34.45
63976;DHT22;50167;47.958;21.780;2023-10-13T10:12:00;32.41;35.88
63976;DHT22;50167;47.958;21.780;2023-10-13T10:14:46;31.94;35.66
63976;DHT22;50167;47.958;21.780;2023-10-13T10:17:10;31.30;36.09
63976;DHT22;50167;47.958;21.780;2023-10-13T10:19:51;30.61;37.86
63976;DHT22;50167;47.958;21.780;2023-10-13T10:22:33;29.99;38.72
63976;DHT22;50167;47.958;21.780;2023-10-13T10:25:06;29.61;39.16
63976;DHT22;50167;47.958;21.780;2023-10-13T10:27:33;29.22;39.63
63976;DHT22;50167;47.958;21.780;2023-10-13T10:30:00;28.77;40.14
63976;DHT22;50167;47.958;21.780;2023-10-13T10:32:37;28.31;41.05
63976;DHT22;50167;47.958;21.780;2023-10-13T10:35:09;27.87;41.68
63976;DHT22;50167;47.958;21.780;2023-10-13T10:37:45;27.69;41.92
63976;DHT22;50167;47.958;21.780;2023-10-13T10:40:17;27.71;42.27
63976;DHT22;50167;47.958;21.780;2023-10-13T10:42:51;27.90;41.56
63976;DHT22;50167;47.958;21.780;2023-10-13T10:45:18;28.22;40.72
63976;DHT22;50167;47.958;21.780;2023-10-13T10:47:50;28.27;41.10
63976;DHT22;50167;47.958;21.780;2023-10-13T10:54:59;27.68;43.09
63976;DHT22;50167;47.958;21.780;2023-10-13T10:57:26;27.45;43.84
63976;DHT22;50167;47.958;21.780;2023-10-13T10:59:55;27.31;44.22
63976;DHT22;50167;47.958;21.780;2023-10-13T11:02:31;27.24;44.88
63976;DHT22;50167;47.958;21.780;2023-10-13T11:04:57;27.14;44.74
63976;DHT22;50167;47.958;21.780;2023-10-13T11:07:24;27.07;45.11
63976;DHT22;50167;47.958;21.780;2023-10-13T11:09:51;27.10;44.88
63976;DHT22;50167;47.958;21.780;2023-10-13T11:12:26;27.11;44.44
63976;DHT22;50167;47.958;21.780;2023-10-13T11:15:08;27.14;44.31
63976;DHT22;50167;47.958;21.780;2023-10-13T11:17:52;27.38;42.82
63976;DHT22;50167;47.958;21.780;2023-10-13T11:20:22;27.48;42.92
63976;DHT22;50167;47.958;21.780;2023-10-13T11:22:52;27.58;42.95
63976;DHT22;50167;47.958;21.780;2023-10-13T11:25:30;27.77;43.00
63976;DHT22;50167;47.958;21.780;2023-10-13T11:28:17;27.77;43.09
63976;DHT22;50167;47.958;21.780;2023-10-13T11:30:45;27.97;42.81
63976;DHT22;50167;47.958;21.780;2023-10-13T11:33:18;28.22;42.47
63976;DHT22;50167;47.958;21.780;2023-10-13T11:35:47;28.47;41.32
63976;DHT22;50167;47.958;21.780;2023-10-13T11:38:25;28.79;40.56
63976;DHT22;50167;47.958;21.780;2023-10-13T11:41:03;29.17;39.71
63976;DHT22;50167;47.958;21.780;2023-10-13T11:43:35;29.25;39.40
63976;DHT22;50167;47.958;21.780;2023-10-13T11:46:14;28.99;39.31
63976;DHT22;50167;47.958;21.780;2023-10-13T11:48:43;28.77;39.26
63976;DHT22;50167;47.958;21.780;2023-10-13T11:51:14;28.67;39.64
63976;DHT22;50167;47.958;21.780;2023-10-13T11:53:46;28.47;39.53
63976;DHT22;50167;47.958;21.780;2023-10-13T11:56:18;28.28;40.55
63976;DHT22;50167;47.958;21.780;2023-10-13T11:58:47;28.23;40.95
63976;DHT22;50167;47.958;21.780;2023-10-13T12:01:14;28.30;41.19
63976;DHT22;50167;47.958;21.780;2023-10-13T12:03:45;28.47;40.28
63976;DHT22;50167;47.958;21.780;2023-10-13T12:06:32;28.33;40.54
63976;DHT22;50167;47.958;21.780;2023-10-13T12:09:08;27.93;41.02
63976;DHT22;50167;47.958;21.780;2023-10-13T12:11:40;27.49;41.49
63976;DHT22;50167;47.958;21.780;2023-10-13T12:18:29;28.06;40.19
63976;DHT22;50167;47.958;21.780;2023-10-13T12:20:55;28.34;40.66
63976;DHT22;50167;47.958;21.780;2023-10-13T12:23:23;28.58;40.32
63976;DHT22;50167;47.958;21.780;2023-10-13T12:25:51;28.65;39.99
63976;DHT22;50167;47.958;21.780;2023-10-13T12:28:25;28.51;39.61
63976;DHT22;50167;47.958;21.780;2023-10-13T12:30:56;28.35;40.61
63976;DHT22;50167;47.958;21.780;2023-10-13T12:33:25;28.19;41.02
63976;DHT22;50167;47.958;21.780;2023-10-13T12:36:01;28.10;41.07
63976;DHT22;50167;47.958;21.780;2023-10-13T12:38:38;28.33;40.48
63976;DHT22;50167;47.958;21.780;2023-10-13T12:41:20;28.60;40.61
63976;DHT22;50167;47.958;21.780;2023-10-13T12:44:06;28.71;40.27
63976;DHT22;50167;47.958;21.780;2023-10-13T12:46:51;28.79;40.12
63976;DHT22;50167;47.958;21.780;2023-10-13T12:49:37;28.92;39.97
63976;DHT22;50167;47.958;21.780;2023-10-13T12:52:07;28.92;39.74
63976;DHT22;50167;47.958;21.780;2023-10-13T12:54:44;28.88;40.33
63976;DHT22;50167;47.958;21.780;2023-10-13T12:57:27;28.77;39.62
63976;DHT22;50167;47.958;21.780;2023-10-13T12:59:51;28.72;39.88
63976;DHT22;50167;47.958;21.780;2023-10-13T13:02:21;28.75;39.57
63976;DHT22;50167;47.958;21.780;2023-10-13T13:04:47;28.81;39.94
63976;DHT22;50167;47.958;21.780;2023-10-13T13:07:17;28.95;40.19
63976;DHT22;50167;47.958;21.780;2023-10-13T13:09:44;29.10;39.74
63976;DHT22;50167;47.958;21.780;2023-10-13T13:12:10;29.16;39.04
63976;DHT22;50167;47.958;21.780;2023-10-13T13:14:39;29.14;39.26
63976;DHT22;50167;47.958;21.780;2023-10-13T13:17:07;29.40;38.12
63976;DHT22;50167;47.958;21.780;2023-10-13T13:19:35;29.56;38.16
63976;DHT22;50167;47.958;21.780;2023-10-13T13:22:09;29.46;38.36
63976;DHT22;50167;47.958;21.780;2023-10-13T13:24:39;29.20;38.99
63976;DHT22;50167;47.958;21.780;2023-10-13T13:27:14;28.81;39.31
63976;DHT22;50167;47.958;21.780;2023-10-13T13:29:45;28.34;40.44
63976;DHT22;50167;47.958;21.780;2023-10-13T13:32:12;27.99;41.05
63976;DHT22;50167;47.958;21.780;2023-10-13T13:34:51;27.64;41.76
63976;DHT22;50167;47.958;21.780;2023-10-13T13:37:21;27.41;42.33
63976;DHT22;50167;47.958;21.780;2023-10-13T13:39:47;27.21;42.74
63976;DHT22;50167;47.958;21.780;2023-10-13T13:42:13;27.00;43.25
63976;DHT22;50167;47.958;21.780;2023-10-13T13:44:47;26.83;43.80
63976;DHT22;50167;47.958;21.780;2023-10-13T13:47:13;26.66;44.49
63976;DHT22;50167;47.958;21.780;2023-10-13T13:49:41;26.51;44.96
63976;DHT22;50167;47.958;21.780;2023-10-13T13:52:09;26.39;45.59
63976;DHT22;50167;47.958;21.780;2023-10-13T13:54:35;26.35;46.18
63976;DHT22;50167;47.958;21.780;2023-10-13T13:57:01;26.27;46.62
63976;DHT22;50167;47.958;21.780;2023-10-13T13:59:28;26.18;46.63
63976;DHT22;50167;47.958;21.780;2023-10-13T14:01:56;26.09;47.02
63976;DHT22;50167;47.958;21.780;2023-10-13T14:04:24;26.03;47.34
63976;DHT22;50167;47.958;21.780;2023-10-13T14:06:51;26.01;47.33
63976;DHT22;50167;47.958;21.780;2023-10-13T14:09:17;26.00;47.61
63976;DHT22;50167;47.958;21.780;2023-10-13T14:11:45;26.00;48.01
63976;DHT22;50167;47.958;21.780;2023-10-13T14:14:29;26.00;48.23
63976;DHT22;50167;47.958;21.780;2023-10-13T14:16:57;25.95;48.36
63976;DHT22;50167;47.958;21.780;2023-10-13T14:19:32;25.94;48.46
63976;DHT22;50167;47.958;21.780;2023-10-13T14:21:59;25.90;48.89
63976;DHT22;50167;47.958;21.780;2023-10-13T14:24:28;25.84;48.99
63976;DHT22;50167;47.958;21.780;2023-10-13T14:26:58;25.84;49.01
63976;DHT22;50167;47.958;21.780;2023-10-13T14:29:27;25.73;49.13
63976;DHT22;50167;47.958;21.780;2023-10-13T14:31:56;25.67;49.34
63976;DHT22;50167;47.958;21.780;2023-10-13T14:34:22;25.63;49.83
63976;DHT22;50167;47.958;21.780;2023-10-13T14:36:48;25.65;49.69
63976;DHT22;50167;47.958;21.780;2023-10-13T14:39:15;25.67;49.59
63976;DHT22;50167;47.958;21.780;2023-10-13T14:41:41;25.70;49.47
63976;DHT22;50167;47.958;21.780;2023-10-13T14:44:07;25.75;49.68
63976;DHT22;50167;47.958;21.780;2023-10-13T14:46:35;25.91;49.53
63976;DHT22;50167;47.958;21.780;2023-10-13T14:49:05;26.30;48.74
63976;DHT22;50167;47.958;21.780;2023-10-13T14:51:32;26.70;48.22
63976;DHT22;50167;47.958;21.780;2023-10-13T14:53:59;27.09;47.43
63976;DHT22;50167;47.958;21.780;2023-10-13T14:56:26;27.25;47.01
63976;DHT22;50167;47.958;21.780;2023-10-13T14:58:54;27.20;47.06
63976;DHT22;50167;47.958;21.780;2023-10-13T15:01:22;26.97;47.35
63976;DHT22;50167;47.958;21.780;2023-10-13T15:03:52;26.66;47.89
63976;DHT22;50167;47.958;21.780;2023-10-13T15:06:22;26.31;47.85
63976;DHT22;50167;47.958;21.780;2023-10-13T15:08:53;26.01;49.02
63976;DHT22;50167;47.958;21.780;2023-10-13T15:11:21;25.70;49.95
63976;DHT22;50167;47.958;21.780;2023-10-13T15:13:50;25.42;50.49
63976;DHT22;50167;47.958;21.780;2023-10-13T15:16:20;25.15;51.20
63976;DHT22;50167;47.958;21.780;2023-10-13T15:18:49;24.91;52.05
63976;DHT22;50167;47.958;21.780;2023-10-13T15:21:26;24.66;52.75
63976;DHT22;50167;47.958;21.780;2023-10-13T15:23:51;24.40;53.49
63976;DHT22;50167;47.958;21.780;2023-10-13T15:26:19;24.19;54.14
63976;DHT22;50167;47.958;21.780;2023-10-13T15:28:49;23.92;54.87
63976;DHT22;50167;47.958;21.780;2023-10-13T15:31:18;23.71;55.48
63976;DHT22;50167;47.958;21.780;2023-10-13T15:33:53;23.50;56.07
63976;DHT22;50167;47.958;21.780;2023-10-13T15:36:22;23.29;56.57
63976;DHT22;50167;47.958;21.780;2023-10-13T15:38:51;23.12;57.18
63976;DHT22;50167;47.958;21.780;2023-10-13T15:41:27;22.95;57.67
63976;DHT22;50167;47.958;21.780;2023-10-13T15:43:55;22.76;58.21
63976;DHT22;50167;47.958;21.780;2023-10-13T15:46:23;22.62;58.80
63976;DHT22;50167;47.958;21.780;2023-10-13T15:48:51;22.47;59.38
63976;DHT22;50167;47.958;21.780;2023-10-13T15:51:19;22.35;59.83
63976;DHT22;50167;47.958;21.780;2023-10-13T15:53:46;22.23;60.08
63976;DHT22;50167;47.958;21.780;2023-10-13T15:56:17;22.09;60.54
63976;DHT22;50167;47.958;21.780;2023-10-13T15:58:45;22.00;60.98
63976;DHT22;50167;47.958;21.780;2023-10-13T16:01:12;21.88;61.43
63976;DHT22;50167;47.958;21.780;2023-10-13T16:03:43;21.75;61.84
63976;DHT22;50167;47.958;21.780;2023-10-13T16:06:10;21.62;62.28
63976;DHT22;50167;47.958;21.780;2023-10-13T16:08:38;21.51;62.61
63976;DHT22;50167;47.958;21.780;2023-10-13T16:11:06;22.10;63.11
63976;DHT22;50167;47.958;21.780;2023-10-13T16:13:36;23.15;61.39
63976;DHT22;50167;47.958;21.780;2023-10-13T16:16:03;23.89;59.75
63976;DHT22;50167;47.958;21.780;2023-10-13T16:18:29;23.85;57.77
63976;DHT22;50167;47.958;21.780;2023-10-13T16:20:59;23.18;58.12
63976;DHT22;50167;47.958;21.780;2023-10-13T16:23:28;22.64;59.65
63976;DHT22;50167;47.958;21.780;2023-10-13T16:25:54;22.23;60.43
63976;DHT22;50167;47.958;21.780;2023-10-13T16:28:28;21.92;61.46